Accueil
METAR-TAF:

METAR-TAF

Aéroports :

Birmingham, Angleterre

Aéroport de Birmingham

latitude: 52-27N, longitude: 001-44W, altitude: 99 m

Observation

Le bulletin a été fait il y a 29 minutes, à 09:50 UTC
Vent 9 kt de est, variant entre est/nord-est et sud
Température 2°C
Humidité 80%
Pression 1025 hPa
Visibilité: 8000 m

METAR: EGBB 220950Z 10009KT 070V170 8000 NSC 02/M01 Q1025

Heure: 10:19 (10:19 UTC)

Prévision

Le bulletin a été fait il y a 56 minutes, à 09:23 UTC
Prévision valable du 22 à 09 UTC au 23 à 06 UTC
Vent 5 kt de est
Visibilité: 7000 m
Nuages épars à une hauteur de 2500 ft
Evoluant progressivement
du 22 à 09 UTC au 22 à 12 UTC
Visibilité 10 km ou plus

TAF: EGBB 220923Z 2209/2306 10005KT 7000 SCT025 BECMG 2209/2212 9999

Observations et prévisions météorologiques de plus de 4000 aéroports (messages METAR et TAF).

Les stations disponibles sont représentées par des disques jaunes et rouges sur la carte.

Passer la souris dessus pour voir le nom de la station.

Cliquer dessus pour voir les observations et prévisions météorologiques.

Pour changer de carte: cliquez sur les boutons verts avec une croix noire pour zoomer, sur le bouton vert avec un tiret pour effectuer un zoom arrière, ou sur les flèches vertes pour les cartes adjacentes.


METAR-TAF: